createdAt,value
2018-07-05T00:00:14.611Z,1006.55
2018-07-05T00:00:55.179Z,1006.58
2018-07-05T00:01:35.778Z,1006.58
2018-07-05T00:02:16.360Z,1006.56
2018-07-05T00:02:56.946Z,1006.56
2018-07-05T00:03:37.502Z,1006.57
2018-07-05T00:04:18.053Z,1006.58
2018-07-05T00:04:58.612Z,1006.58
2018-07-05T00:05:39.183Z,1006.56
2018-07-05T00:06:19.751Z,1006.56
2018-07-05T00:07:00.314Z,1006.55
2018-07-05T00:07:40.878Z,1006.56
2018-07-05T00:08:21.453Z,1006.58
2018-07-05T00:09:02.029Z,1006.6
2018-07-05T00:09:42.591Z,1006.59
2018-07-05T00:10:23.176Z,1006.58
2018-07-05T00:11:03.735Z,1006.55
2018-07-05T00:11:44.339Z,1006.54
2018-07-05T00:12:24.953Z,1006.55
2018-07-05T00:13:05.729Z,1006.56
2018-07-05T00:13:46.993Z,1006.54
2018-07-05T00:14:28.086Z,1006.52
2018-07-05T00:15:08.720Z,1006.51
2018-07-05T00:15:49.284Z,1006.49
2018-07-05T00:16:29.862Z,1006.5
2018-07-05T00:17:10.451Z,1006.49
2018-07-05T00:17:50.989Z,1006.5
2018-07-05T00:18:31.554Z,1006.46
2018-07-05T00:19:12.126Z,1006.46
2018-07-05T00:19:52.697Z,1006.49
2018-07-05T00:20:33.253Z,1006.47
2018-07-05T00:21:13.848Z,1006.47
2018-07-05T00:21:54.408Z,1006.46
2018-07-05T00:22:34.966Z,1006.48
2018-07-05T00:23:15.547Z,1006.48
2018-07-05T00:23:56.148Z,1006.47
2018-07-05T00:24:36.711Z,1006.49
2018-07-05T00:25:17.278Z,1006.44
2018-07-05T00:25:57.830Z,1006.49
2018-07-05T00:26:38.403Z,1006.5
2018-07-05T00:27:18.933Z,1006.52
2018-07-05T00:27:59.504Z,1006.51
2018-07-05T00:28:40.073Z,1006.5
2018-07-05T00:29:20.640Z,1006.5
2018-07-05T00:30:01.213Z,1006.48
2018-07-05T00:30:41.786Z,1006.53
2018-07-05T00:31:22.370Z,1006.46
2018-07-05T00:32:02.965Z,1006.48
2018-07-05T00:32:43.520Z,1006.5
2018-07-05T00:33:24.085Z,1006.52
2018-07-05T00:34:04.655Z,1006.49
2018-07-05T00:34:45.228Z,1006.5
2018-07-05T00:35:25.803Z,1006.49
2018-07-05T00:36:06.390Z,1006.51
2018-07-05T00:36:46.953Z,1006.52
2018-07-05T00:37:27.512Z,1006.5
2018-07-05T00:38:08.087Z,1006.52
2018-07-05T00:38:48.641Z,1006.54
2018-07-05T00:39:29.237Z,1006.55
2018-07-05T00:40:09.793Z,1006.51
2018-07-05T00:40:50.368Z,1006.53
2018-07-05T00:41:30.931Z,1006.51
2018-07-05T00:42:11.489Z,1006.53
2018-07-05T00:42:52.059Z,1006.52
2018-07-05T00:43:32.620Z,1006.53
2018-07-05T00:44:13.185Z,1006.51
2018-07-05T00:44:53.750Z,1006.49
2018-07-05T00:45:34.431Z,1006.52
2018-07-05T00:46:14.986Z,1006.53
2018-07-05T00:46:55.712Z,1006.53
2018-07-05T00:47:36.560Z,1006.49
2018-07-05T00:48:17.290Z,1006.49
2018-07-05T00:48:57.963Z,1006.46
2018-07-05T00:49:38.729Z,1006.42
2018-07-05T00:50:19.469Z,1006.44
2018-07-05T00:51:00.125Z,1006.45
2018-07-05T00:51:40.818Z,1006.45
2018-07-05T00:52:21.575Z,1006.47
2018-07-05T00:53:02.220Z,1006.46
2018-07-05T00:53:42.946Z,1006.46
2018-07-05T00:54:23.637Z,1006.5
2018-07-05T00:55:04.350Z,1006.47
2018-07-05T00:55:45.056Z,1006.47
2018-07-05T00:56:25.723Z,1006.5
2018-07-05T00:57:06.456Z,1006.47
2018-07-05T00:57:47.373Z,1006.44
2018-07-05T00:58:28.222Z,1006.42
2018-07-05T00:59:08.902Z,1006.42
2018-07-05T00:59:49.574Z,1006.46
2018-07-05T01:00:30.280Z,1006.42
2018-07-05T01:01:11.004Z,1006.45
2018-07-05T01:01:51.716Z,1006.45
2018-07-05T01:02:32.484Z,1006.43
2018-07-05T01:03:13.099Z,1006.43
2018-07-05T01:03:53.826Z,1006.44
2018-07-05T01:04:34.553Z,1006.43
2018-07-05T01:05:15.309Z,1006.42
2018-07-05T01:05:56.056Z,1006.39
2018-07-05T01:06:36.816Z,1006.36
2018-07-05T01:07:17.424Z,1006.4
2018-07-05T01:07:58.092Z,1006.4
2018-07-05T01:08:38.844Z,1006.37
2018-07-05T01:09:19.542Z,1006.37
2018-07-05T01:10:00.216Z,1006.39
2018-07-05T01:10:40.947Z,1006.41
2018-07-05T01:11:21.646Z,1006.39
2018-07-05T01:12:02.342Z,1006.42
2018-07-05T01:12:42.982Z,1006.42
2018-07-05T01:13:23.469Z,1006.37
2018-07-05T01:14:04.030Z,1006.38
2018-07-05T01:14:44.673Z,1006.41
2018-07-05T01:15:25.286Z,1006.38
2018-07-05T01:16:05.855Z,1006.36
2018-07-05T01:16:46.490Z,1006.37
2018-07-05T01:17:27.396Z,1006.4
2018-07-05T01:18:08.203Z,1006.41
2018-07-05T01:18:48.949Z,1006.38
2018-07-05T01:19:29.646Z,1006.41
2018-07-05T01:20:10.342Z,1006.42
2018-07-05T01:20:51.022Z,1006.41
2018-07-05T01:21:31.614Z,1006.42
2018-07-05T01:22:12.280Z,1006.41
2018-07-05T01:22:52.940Z,1006.39
2018-07-05T01:23:33.779Z,1006.38
2018-07-05T01:24:14.367Z,1006.41
2018-07-05T01:24:54.906Z,1006.42
2018-07-05T01:25:35.634Z,1006.43
2018-07-05T01:26:16.323Z,1006.42
2018-07-05T01:26:56.929Z,1006.41
2018-07-05T01:27:37.620Z,1006.37
2018-07-05T01:28:18.232Z,1006.42
2018-07-05T01:28:58.848Z,1006.4
2018-07-05T01:29:39.437Z,1006.4
2018-07-05T01:30:20.148Z,1006.4
2018-07-05T01:31:00.839Z,1006.38
2018-07-05T01:31:41.429Z,1006.39
2018-07-05T01:32:22.004Z,1006.4
2018-07-05T01:33:02.564Z,1006.38
2018-07-05T01:33:43.127Z,1006.39
2018-07-05T01:34:23.687Z,1006.38
2018-07-05T01:35:04.257Z,1006.38
2018-07-05T01:35:44.848Z,1006.34
2018-07-05T01:36:25.409Z,1006.34
2018-07-05T01:37:05.977Z,1006.35
2018-07-05T01:37:46.562Z,1006.35
2018-07-05T01:38:27.137Z,1006.33
2018-07-05T01:39:07.688Z,1006.3
2018-07-05T01:39:48.264Z,1006.29
2018-07-05T01:40:28.826Z,1006.29
2018-07-05T01:41:09.385Z,1006.33
2018-07-05T01:41:49.951Z,1006.32
2018-07-05T01:42:30.522Z,1006.35
2018-07-05T01:43:11.083Z,1006.31
2018-07-05T01:43:51.641Z,1006.3
2018-07-05T01:44:32.209Z,1006.37
2018-07-05T01:45:12.780Z,1006.33
2018-07-05T01:45:53.355Z,1006.32
2018-07-05T01:46:33.910Z,1006.29
2018-07-05T01:47:14.476Z,1006.31
2018-07-05T01:47:55.049Z,1006.27
2018-07-05T01:48:35.709Z,1006.3
2018-07-05T01:49:16.347Z,1006.28
2018-07-05T01:49:57.017Z,1006.3
2018-07-05T01:50:37.573Z,1006.28
2018-07-05T01:51:18.146Z,1006.25
2018-07-05T01:51:58.760Z,1006.27
2018-07-05T01:52:39.286Z,1006.24
2018-07-05T01:53:19.859Z,1006.29
2018-07-05T01:54:00.427Z,1006.27
2018-07-05T01:54:40.990Z,1006.27
2018-07-05T01:55:21.546Z,1006.29
2018-07-05T01:56:02.112Z,1006.29
2018-07-05T01:56:42.722Z,1006.28
2018-07-05T01:57:23.293Z,1006.29
2018-07-05T01:58:03.856Z,1006.27
2018-07-05T01:58:44.425Z,1006.29
2018-07-05T01:59:24.992Z,1006.3
2018-07-05T02:00:05.556Z,1006.32
2018-07-05T02:00:46.130Z,1006.26
2018-07-05T02:01:26.705Z,1006.22
2018-07-05T02:02:07.260Z,1006.24
2018-07-05T02:02:47.824Z,1006.23
2018-07-05T02:03:28.406Z,1006.27
2018-07-05T02:04:08.970Z,1006.24
2018-07-05T02:04:49.544Z,1006.31
2018-07-05T02:05:30.119Z,1006.26
2018-07-05T02:06:10.684Z,1006.26
2018-07-05T02:06:51.239Z,1006.26
2018-07-05T02:07:31.795Z,1006.3
2018-07-05T02:08:12.354Z,1006.24
2018-07-05T02:08:52.931Z,1006.28
2018-07-05T02:09:33.495Z,1006.27
2018-07-05T02:10:14.064Z,1006.21
2018-07-05T02:10:54.627Z,1006.24
2018-07-05T02:11:35.182Z,1006.25
2018-07-05T02:12:15.737Z,1006.25
2018-07-05T02:12:56.302Z,1006.25
2018-07-05T02:13:36.879Z,1006.22
2018-07-05T02:14:17.466Z,1006.24
2018-07-05T02:14:58.035Z,1006.27
2018-07-05T02:15:38.603Z,1006.25
2018-07-05T02:16:19.174Z,1006.25
2018-07-05T02:16:59.750Z,1006.22
2018-07-05T02:17:40.323Z,1006.21
2018-07-05T02:18:20.893Z,1006.21
2018-07-05T02:19:01.475Z,1006.21
2018-07-05T02:19:42.041Z,1006.23
2018-07-05T02:20:22.610Z,1006.23
2018-07-05T02:21:03.169Z,1006.23
2018-07-05T02:21:43.730Z,1006.2
2018-07-05T02:22:24.293Z,1006.2
2018-07-05T02:23:04.848Z,1006.21
2018-07-05T02:23:45.408Z,1006.21
2018-07-05T02:24:25.990Z,1006.27
2018-07-05T02:25:06.541Z,1006.23
2018-07-05T02:25:47.112Z,1006.24
2018-07-05T02:26:27.689Z,1006.24
2018-07-05T02:27:08.251Z,1006.23
2018-07-05T02:27:48.814Z,1006.23
2018-07-05T02:28:29.385Z,1006.19
2018-07-05T02:29:09.966Z,1006.19
2018-07-05T02:29:50.544Z,1006.2
2018-07-05T02:30:31.117Z,1006.18
2018-07-05T02:31:11.676Z,1006.19
2018-07-05T02:31:52.244Z,1006.21
2018-07-05T02:32:32.801Z,1006.17
2018-07-05T02:33:13.365Z,1006.16
2018-07-05T02:33:53.933Z,1006.21
2018-07-05T02:34:34.504Z,1006.24
2018-07-05T02:35:15.093Z,1006.23
2018-07-05T02:35:55.657Z,1006.24
2018-07-05T02:36:36.232Z,1006.3
2018-07-05T02:37:16.791Z,1006.25
2018-07-05T02:37:57.362Z,1006.23
2018-07-05T02:38:37.928Z,1006.21
2018-07-05T02:39:18.480Z,1006.26
2018-07-05T02:39:59.048Z,1006.26
2018-07-05T02:40:39.619Z,1006.25
2018-07-05T02:41:20.181Z,1006.23
2018-07-05T02:42:00.758Z,1006.25
2018-07-05T02:42:41.345Z,1006.2
2018-07-05T02:43:21.911Z,1006.24
2018-07-05T02:44:02.467Z,1006.25
2018-07-05T02:44:43.043Z,1006.19
2018-07-05T02:45:23.617Z,1006.23
2018-07-05T02:46:04.178Z,1006.21
2018-07-05T02:46:44.743Z,1006.2
2018-07-05T02:47:25.290Z,1006.2
2018-07-05T02:48:05.851Z,1006.2
2018-07-05T02:48:46.423Z,1006.17
2018-07-05T02:49:27.015Z,1006.18
2018-07-05T02:50:07.567Z,1006.19
2018-07-05T02:50:48.145Z,1006.16
2018-07-05T02:51:28.715Z,1006.17
2018-07-05T02:52:09.288Z,1006.17
2018-07-05T02:52:49.864Z,1006.15
2018-07-05T02:53:30.438Z,1006.15
2018-07-05T02:54:11.010Z,1006.17
2018-07-05T02:54:51.585Z,1006.18
2018-07-05T02:55:32.162Z,1006.16
2018-07-05T02:56:12.733Z,1006.15
2018-07-05T02:56:53.302Z,1006.19
2018-07-05T02:57:33.857Z,1006.19
2018-07-05T02:58:14.427Z,1006.17
2018-07-05T02:58:55.002Z,1006.16
2018-07-05T02:59:35.579Z,1006.18
2018-07-05T03:00:16.151Z,1006.13
2018-07-05T03:00:56.748Z,1006.19
2018-07-05T03:01:37.318Z,1006.15
2018-07-05T03:02:17.888Z,1006.15
2018-07-05T03:02:58.460Z,1006.17
2018-07-05T03:03:39.015Z,1006.15
2018-07-05T03:04:19.569Z,1006.14
2018-07-05T03:05:00.138Z,1006.18
2018-07-05T03:05:40.682Z,1006.2
2018-07-05T03:06:21.258Z,1006.19
2018-07-05T03:07:01.829Z,1006.17
2018-07-05T03:07:42.402Z,1006.2
2018-07-05T03:08:22.969Z,1006.14
2018-07-05T03:09:03.529Z,1006.16
2018-07-05T03:09:44.097Z,1006.17
2018-07-05T03:10:24.678Z,1006.14
2018-07-05T03:11:05.250Z,1006.15
2018-07-05T03:11:45.811Z,1006.15
2018-07-05T03:12:26.384Z,1006.16
2018-07-05T03:13:06.957Z,1006.14
2018-07-05T03:13:47.535Z,1006.14
2018-07-05T03:14:28.110Z,1006.15
2018-07-05T03:15:08.675Z,1006.2
2018-07-05T03:15:49.259Z,1006.21
2018-07-05T03:16:29.831Z,1006.18
2018-07-05T03:17:10.401Z,1006.22
2018-07-05T03:17:50.971Z,1006.22
2018-07-05T03:18:31.539Z,1006.23
2018-07-05T03:19:12.098Z,1006.28
2018-07-05T03:19:52.669Z,1006.29
2018-07-05T03:20:33.242Z,1006.29
2018-07-05T03:21:13.811Z,1006.3
2018-07-05T03:21:54.379Z,1006.29
2018-07-05T03:22:34.947Z,1006.31
2018-07-05T03:23:15.518Z,1006.3
2018-07-05T03:23:56.082Z,1006.3
2018-07-05T03:24:36.640Z,1006.3
2018-07-05T03:25:17.209Z,1006.25
2018-07-05T03:25:57.778Z,1006.31
2018-07-05T03:26:38.330Z,1006.29
2018-07-05T03:27:18.905Z,1006.3
2018-07-05T03:27:59.470Z,1006.29
2018-07-05T03:28:40.045Z,1006.29
2018-07-05T03:29:20.617Z,1006.28
2018-07-05T03:30:01.192Z,1006.27
2018-07-05T03:30:41.778Z,1006.26
2018-07-05T03:31:22.348Z,1006.26
2018-07-05T03:32:02.917Z,1006.28
2018-07-05T03:32:43.476Z,1006.31
2018-07-05T03:33:24.048Z,1006.27
2018-07-05T03:34:04.614Z,1006.24
2018-07-05T03:34:45.198Z,1006.24
2018-07-05T03:35:25.767Z,1006.24
2018-07-05T03:36:06.333Z,1006.18
2018-07-05T03:36:46.897Z,1006.22
2018-07-05T03:37:27.470Z,1006.24
2018-07-05T03:38:08.046Z,1006.2
2018-07-05T03:38:48.616Z,1006.25
2018-07-05T03:39:29.187Z,1006.26
2018-07-05T03:40:09.762Z,1006.28
2018-07-05T03:40:50.338Z,1006.27
2018-07-05T03:41:30.915Z,1006.24
2018-07-05T03:42:11.478Z,1006.27
2018-07-05T03:42:52.057Z,1006.28
2018-07-05T03:43:32.634Z,1006.28
2018-07-05T03:44:13.210Z,1006.28
2018-07-05T03:44:53.787Z,1006.24
2018-07-05T03:45:34.364Z,1006.29
2018-07-05T03:46:14.940Z,1006.28
2018-07-05T03:46:55.506Z,1006.26
2018-07-05T03:47:36.086Z,1006.28
2018-07-05T03:48:16.661Z,1006.28
2018-07-05T03:48:57.247Z,1006.29
2018-07-05T03:49:37.798Z,1006.27
2018-07-05T03:50:18.370Z,1006.31
2018-07-05T03:50:58.943Z,1006.32
2018-07-05T03:51:39.530Z,1006.32
2018-07-05T03:52:20.079Z,1006.31
2018-07-05T03:53:00.655Z,1006.34
2018-07-05T03:53:41.226Z,1006.33
2018-07-05T03:54:21.798Z,1006.32
2018-07-05T03:55:02.365Z,1006.37
2018-07-05T03:55:42.941Z,1006.28
2018-07-05T03:56:23.521Z,1006.28
2018-07-05T03:57:04.096Z,1006.31
2018-07-05T03:57:44.664Z,1006.31
2018-07-05T03:58:25.226Z,1006.3
2018-07-05T03:59:05.794Z,1006.3
2018-07-05T03:59:46.370Z,1006.29
2018-07-05T04:00:26.931Z,1006.32
2018-07-05T04:01:07.491Z,1006.27
2018-07-05T04:01:48.074Z,1006.29
2018-07-05T04:02:28.638Z,1006.3
2018-07-05T04:03:09.210Z,1006.26
2018-07-05T04:03:49.780Z,1006.26
2018-07-05T04:04:30.383Z,1006.26
2018-07-05T04:05:10.915Z,1006.28
2018-07-05T04:05:51.492Z,1006.29
2018-07-05T04:06:32.082Z,1006.28
2018-07-05T04:07:12.662Z,1006.25
2018-07-05T04:07:53.232Z,1006.29
2018-07-05T04:08:33.789Z,1006.27
2018-07-05T04:09:14.362Z,1006.27
2018-07-05T04:09:54.939Z,1006.31
2018-07-05T04:10:35.496Z,1006.3
2018-07-05T04:11:16.063Z,1006.26
2018-07-05T04:11:56.628Z,1006.28
2018-07-05T04:12:37.210Z,1006.3
2018-07-05T04:13:17.778Z,1006.29
2018-07-05T04:13:58.342Z,1006.3
2018-07-05T04:14:38.914Z,1006.26
2018-07-05T04:15:19.484Z,1006.3
2018-07-05T04:16:00.049Z,1006.28
2018-07-05T04:16:40.614Z,1006.27
2018-07-05T04:17:21.175Z,1006.27
2018-07-05T04:18:01.751Z,1006.25
2018-07-05T04:18:42.327Z,1006.26
2018-07-05T04:19:22.908Z,1006.29
2018-07-05T04:20:03.478Z,1006.3
2018-07-05T04:20:44.044Z,1006.3
2018-07-05T04:21:24.606Z,1006.26
2018-07-05T04:22:05.178Z,1006.22
2018-07-05T04:22:45.762Z,1006.24
2018-07-05T04:23:26.323Z,1006.26
2018-07-05T04:24:07.003Z,1006.27
2018-07-05T04:24:47.456Z,1006.23
2018-07-05T04:25:28.031Z,1006.27
2018-07-05T04:26:08.600Z,1006.23
2018-07-05T04:26:49.168Z,1006.26
2018-07-05T04:27:29.741Z,1006.26
2018-07-05T04:28:10.315Z,1006.23
2018-07-05T04:28:50.879Z,1006.25
2018-07-05T04:29:31.433Z,1006.28
2018-07-05T04:30:11.988Z,1006.29
2018-07-05T04:30:52.553Z,1006.27
2018-07-05T04:31:33.147Z,1006.31
2018-07-05T04:32:13.701Z,1006.32
2018-07-05T04:32:54.250Z,1006.33
2018-07-05T04:33:34.799Z,1006.35
2018-07-05T04:34:15.447Z,1006.34
2018-07-05T04:34:55.939Z,1006.33
2018-07-05T04:35:36.496Z,1006.33
2018-07-05T04:36:17.061Z,1006.33
2018-07-05T04:36:57.642Z,1006.34
2018-07-05T04:37:38.190Z,1006.35
2018-07-05T04:38:18.757Z,1006.34
2018-07-05T04:38:59.306Z,1006.32
2018-07-05T04:39:39.857Z,1006.35
2018-07-05T04:40:20.409Z,1006.36
2018-07-05T04:41:00.968Z,1006.38
2018-07-05T04:41:41.567Z,1006.36
2018-07-05T04:42:22.178Z,1006.37
2018-07-05T04:43:02.714Z,1006.36
2018-07-05T04:43:43.271Z,1006.34
2018-07-05T04:44:23.851Z,1006.36
2018-07-05T04:45:04.407Z,1006.36
2018-07-05T04:45:45.000Z,1006.35
2018-07-05T04:46:25.548Z,1006.37
2018-07-05T04:47:06.113Z,1006.36
2018-07-05T04:47:46.700Z,1006.36
2018-07-05T04:48:27.219Z,1006.36
2018-07-05T04:49:07.774Z,1006.36
2018-07-05T04:49:48.324Z,1006.39
2018-07-05T04:50:28.876Z,1006.37
2018-07-05T04:51:09.444Z,1006.39
2018-07-05T04:51:50.036Z,1006.4
2018-07-05T04:52:30.610Z,1006.45
2018-07-05T04:53:11.160Z,1006.39
2018-07-05T04:53:51.746Z,1006.4
2018-07-05T04:54:32.318Z,1006.39
2018-07-05T04:55:12.885Z,1006.44
2018-07-05T04:55:53.462Z,1006.47
2018-07-05T04:56:34.024Z,1006.46
2018-07-05T04:57:14.578Z,1006.45
2018-07-05T04:57:55.143Z,1006.48
2018-07-05T04:58:35.706Z,1006.48
2018-07-05T04:59:16.269Z,1006.48
2018-07-05T04:59:56.867Z,1006.45
2018-07-05T05:00:37.444Z,1006.45
2018-07-05T05:01:18.026Z,1006.44
2018-07-05T05:01:58.586Z,1006.47
2018-07-05T05:02:39.156Z,1006.4
2018-07-05T05:03:19.775Z,1006.45
2018-07-05T05:04:00.345Z,1006.4
2018-07-05T05:04:40.914Z,1006.39
2018-07-05T05:05:21.497Z,1006.4
2018-07-05T05:06:02.074Z,1006.36
2018-07-05T05:06:42.643Z,1006.39
2018-07-05T05:07:23.196Z,1006.44
2018-07-05T05:08:03.764Z,1006.41
2018-07-05T05:08:44.364Z,1006.43
2018-07-05T05:09:24.904Z,1006.42
2018-07-05T05:10:05.461Z,1006.43
2018-07-05T05:10:46.024Z,1006.5
2018-07-05T05:11:26.599Z,1006.46
2018-07-05T05:12:07.152Z,1006.47
2018-07-05T05:12:47.727Z,1006.48
2018-07-05T05:13:28.284Z,1006.46
2018-07-05T05:14:08.843Z,1006.45
2018-07-05T05:14:49.418Z,1006.47
2018-07-05T05:15:29.966Z,1006.46
2018-07-05T05:16:10.546Z,1006.44
2018-07-05T05:16:51.122Z,1006.41
2018-07-05T05:17:31.689Z,1006.41
2018-07-05T05:18:12.261Z,1006.4
2018-07-05T05:18:52.838Z,1006.41
2018-07-05T05:19:33.356Z,1006.35
2018-07-05T05:20:13.920Z,1006.31
2018-07-05T05:20:54.494Z,1006.26
2018-07-05T05:21:35.063Z,1006.24
2018-07-05T05:22:15.627Z,1006.28
2018-07-05T05:22:56.195Z,1006.22
2018-07-05T05:23:36.772Z,1006.23
2018-07-05T05:24:17.392Z,1006.22
2018-07-05T05:24:57.897Z,1006.19
2018-07-05T05:25:38.457Z,1006.17
2018-07-05T05:26:19.014Z,1006.19
2018-07-05T05:26:59.579Z,1006.17
2018-07-05T05:27:40.175Z,1006.17
2018-07-05T05:28:20.731Z,1006.17
2018-07-05T05:29:01.279Z,1006.18
2018-07-05T05:29:41.854Z,1006.24
2018-07-05T05:30:22.449Z,1006.24
2018-07-05T05:31:02.994Z,1006.23
2018-07-05T05:31:43.604Z,1006.28
2018-07-05T05:32:24.397Z,1006.3
2018-07-05T05:33:05.139Z,1006.28
2018-07-05T05:33:45.918Z,1006.28
2018-07-05T05:34:26.740Z,1006.24
2018-07-05T05:35:07.906Z,1006.27
2018-07-05T05:35:48.476Z,1006.25
2018-07-05T05:36:29.049Z,1006.28
2018-07-05T05:37:09.615Z,1006.32
2018-07-05T05:37:50.199Z,1006.32
2018-07-05T05:38:30.773Z,1006.29
2018-07-05T05:39:11.362Z,1006.31
2018-07-05T05:39:51.948Z,1006.33
2018-07-05T05:40:32.487Z,1006.35
2018-07-05T05:41:13.056Z,1006.37
2018-07-05T05:41:53.621Z,1006.44
2018-07-05T05:42:34.192Z,1006.45
2018-07-05T05:43:14.769Z,1006.48
2018-07-05T05:43:55.388Z,1006.54
2018-07-05T05:44:36.051Z,1006.5
2018-07-05T05:45:16.641Z,1006.59
2018-07-05T05:45:57.378Z,1006.62
2018-07-05T05:46:37.947Z,1006.65
2018-07-05T05:47:18.525Z,1006.67
2018-07-05T05:47:59.160Z,1006.73
2018-07-05T05:48:39.725Z,1006.79
2018-07-05T05:49:20.373Z,1006.82
2018-07-05T05:50:00.971Z,1006.89
2018-07-05T05:50:41.522Z,1006.88
2018-07-05T05:51:22.117Z,1006.99
2018-07-05T05:52:02.719Z,1007.03
2018-07-05T05:52:43.302Z,1007.05
2018-07-05T05:53:23.880Z,1007.12
2018-07-05T05:54:04.451Z,1007.12
2018-07-05T05:54:45.023Z,1007.05
2018-07-05T05:55:25.605Z,1007.06
2018-07-05T05:56:06.176Z,1007.17
2018-07-05T05:56:46.751Z,1007.28
2018-07-05T05:57:27.334Z,1007.41
2018-07-05T05:58:07.918Z,1007.37
2018-07-05T05:58:48.481Z,1007.41
2018-07-05T05:59:29.066Z,1007.38
2018-07-05T06:00:09.638Z,1007.43
2018-07-05T06:00:50.237Z,1007.55
2018-07-05T06:01:30.811Z,1007.61
2018-07-05T06:02:11.378Z,1007.56
2018-07-05T06:02:51.951Z,1007.41
2018-07-05T06:03:32.575Z,1007.37
2018-07-05T06:04:13.142Z,1007.28
2018-07-05T06:04:53.721Z,1007.23
2018-07-05T06:05:34.292Z,1007.23
2018-07-05T06:06:14.867Z,1007.28
2018-07-05T06:06:55.434Z,1007.25
2018-07-05T06:07:36.008Z,1007.2
2018-07-05T06:08:16.581Z,1007.23
2018-07-05T06:08:57.168Z,1007.26
2018-07-05T06:09:37.783Z,1007.27
2018-07-05T06:10:18.350Z,1007.28
2018-07-05T06:10:58.931Z,1007.23
2018-07-05T06:11:39.507Z,1007.19
2018-07-05T06:12:20.145Z,1007.21
2018-07-05T06:13:00.704Z,1007.14
2018-07-05T06:13:41.273Z,1007.14
2018-07-05T06:14:21.847Z,1007.08
2018-07-05T06:15:02.428Z,1007.15
2018-07-05T06:15:43.007Z,1007.25
2018-07-05T06:16:23.585Z,1007.3
2018-07-05T06:17:04.154Z,1007.29
2018-07-05T06:17:44.750Z,1007.25
2018-07-05T06:18:25.330Z,1007.24
2018-07-05T06:19:05.890Z,1007.24
2018-07-05T06:19:46.530Z,1007.26
2018-07-05T06:20:27.060Z,1007.27
2018-07-05T06:21:07.619Z,1007.18
2018-07-05T06:21:48.217Z,1007.19
2018-07-05T06:22:28.802Z,1007.23
2018-07-05T06:23:09.348Z,1007.28
2018-07-05T06:23:49.935Z,1007.3
2018-07-05T06:24:30.546Z,1007.31
2018-07-05T06:25:11.134Z,1007.38
2018-07-05T06:25:51.710Z,1007.34
2018-07-05T06:26:32.282Z,1007.18
2018-07-05T06:27:12.860Z,1007.21
2018-07-05T06:27:53.431Z,1007.4
2018-07-05T06:28:33.999Z,1007.45
2018-07-05T06:29:14.622Z,1007.51
2018-07-05T06:29:55.229Z,1007.56
2018-07-05T06:30:35.787Z,1007.54
2018-07-05T06:31:16.368Z,1007.47
2018-07-05T06:31:56.972Z,1007.42
2018-07-05T06:32:37.543Z,1007.45
2018-07-05T06:33:18.090Z,1007.42
2018-07-05T06:33:58.670Z,1007.34
2018-07-05T06:34:39.251Z,1007.39
2018-07-05T06:35:19.821Z,1007.39
2018-07-05T06:36:00.384Z,1007.36
2018-07-05T06:36:40.945Z,1007.42
2018-07-05T06:37:21.499Z,1007.4
2018-07-05T06:38:02.119Z,1007.34
2018-07-05T06:38:42.643Z,1007.43
2018-07-05T06:39:23.242Z,1007.44
2018-07-05T06:40:03.806Z,1007.41
2018-07-05T06:40:44.372Z,1007.37
2018-07-05T06:41:24.962Z,1007.39
2018-07-05T06:42:05.538Z,1007.34
2018-07-05T06:42:46.135Z,1007.33
2018-07-05T06:43:26.745Z,1007.24
2018-07-05T06:44:07.289Z,1007.01
2018-07-05T06:44:48.123Z,1006.85
2018-07-05T06:45:28.701Z,1006.89
2018-07-05T06:46:09.270Z,1007.02
2018-07-05T06:46:49.837Z,1006.79
2018-07-05T06:47:30.488Z,1006.74
2018-07-05T06:48:11.002Z,1006.75
2018-07-05T06:48:51.616Z,1006.76
2018-07-05T06:49:32.185Z,1006.76
2018-07-05T06:50:12.759Z,1006.76
2018-07-05T06:50:53.323Z,1006.67
2018-07-05T06:51:33.882Z,1006.67
2018-07-05T06:52:14.470Z,1006.62
2018-07-05T06:52:55.044Z,1006.66
2018-07-05T06:53:35.619Z,1006.62
2018-07-05T06:54:16.220Z,1006.66
2018-07-05T06:54:56.796Z,1006.63
2018-07-05T06:55:37.369Z,1006.64
2018-07-05T06:56:17.975Z,1006.68
2018-07-05T06:56:58.566Z,1006.67
2018-07-05T06:57:39.132Z,1006.72
2018-07-05T06:58:19.692Z,1006.74
2018-07-05T06:59:00.266Z,1006.76
2018-07-05T06:59:40.832Z,1006.71
2018-07-05T07:00:21.486Z,1006.65
2018-07-05T07:01:02.060Z,1006.64
2018-07-05T07:01:42.630Z,1006.68
2018-07-05T07:02:23.190Z,1006.68
2018-07-05T07:03:03.753Z,1006.69
2018-07-05T07:03:44.328Z,1006.68
2018-07-05T07:04:24.904Z,1006.67
2018-07-05T07:05:05.479Z,1006.71
2018-07-05T07:05:46.055Z,1006.71
2018-07-05T07:06:26.641Z,1006.7
2018-07-05T07:07:07.234Z,1006.74
2018-07-05T07:07:47.793Z,1006.72
2018-07-05T07:08:28.354Z,1006.76
2018-07-05T07:09:08.936Z,1006.83
2018-07-05T07:09:49.509Z,1006.81
2018-07-05T07:10:30.087Z,1006.88
2018-07-05T07:11:10.651Z,1006.94
2018-07-05T07:11:51.242Z,1006.9
2018-07-05T07:12:31.834Z,1006.88
2018-07-05T07:13:12.405Z,1006.88
2018-07-05T07:13:52.967Z,1006.88
2018-07-05T07:14:33.558Z,1006.91
2018-07-05T07:15:14.151Z,1006.96
2018-07-05T07:15:54.720Z,1007.07
2018-07-05T07:16:35.261Z,1007.01
2018-07-05T07:17:15.820Z,1006.96
2018-07-05T07:17:56.373Z,1006.95
2018-07-05T07:18:36.927Z,1006.9
2018-07-05T07:19:17.469Z,1006.85
2018-07-05T07:19:58.024Z,1006.89
2018-07-05T07:20:38.621Z,1006.93
2018-07-05T07:21:19.192Z,1006.92
2018-07-05T07:21:59.781Z,1006.95
2018-07-05T07:22:40.364Z,1006.95
2018-07-05T07:23:20.941Z,1007.04
2018-07-05T07:24:01.519Z,1007.02
2018-07-05T07:24:42.081Z,1007.02
2018-07-05T07:25:22.651Z,1007.24
2018-07-05T07:26:03.241Z,1007.42
2018-07-05T07:26:43.813Z,1007.48
2018-07-05T07:27:24.385Z,1007.48
2018-07-05T07:28:04.950Z,1007.46
2018-07-05T07:28:45.529Z,1007.33
2018-07-05T07:29:26.104Z,1006.99
2018-07-05T07:30:06.660Z,1006.96
2018-07-05T07:30:47.221Z,1006.99
2018-07-05T07:31:27.952Z,1006.91
2018-07-05T07:32:08.342Z,1006.83
2018-07-05T07:32:48.928Z,1006.79
2018-07-05T07:33:29.518Z,1006.79
2018-07-05T07:34:10.099Z,1006.76
2018-07-05T07:34:50.697Z,1006.76
2018-07-05T07:35:31.244Z,1006.87
2018-07-05T07:36:11.854Z,1006.89
2018-07-05T07:36:52.435Z,1006.91
2018-07-05T07:37:33.039Z,1006.9
2018-07-05T07:38:13.574Z,1006.91
2018-07-05T07:38:54.138Z,1006.89
2018-07-05T07:39:34.720Z,1006.9
2018-07-05T07:40:15.310Z,1006.89
2018-07-05T07:40:55.914Z,1006.92
2018-07-05T07:41:36.477Z,1006.89
2018-07-05T07:42:17.051Z,1006.91
2018-07-05T07:42:57.708Z,1006.9
2018-07-05T07:43:38.230Z,1006.94
2018-07-05T07:44:18.788Z,1006.88
2018-07-05T07:44:59.376Z,1006.81
2018-07-05T07:45:39.985Z,1006.84
2018-07-05T07:46:20.479Z,1006.84
2018-07-05T07:47:01.117Z,1006.82
2018-07-05T07:47:41.674Z,1006.84
2018-07-05T07:48:22.260Z,1006.86
2018-07-05T07:49:02.832Z,1006.93
2018-07-05T07:49:43.399Z,1006.87
2018-07-05T07:50:23.979Z,1006.86
2018-07-05T07:51:04.558Z,1006.84
2018-07-05T07:51:45.140Z,1006.83
2018-07-05T07:52:25.733Z,1006.82
2018-07-05T07:53:06.347Z,1006.8
2018-07-05T07:53:46.928Z,1006.89
2018-07-05T07:54:27.484Z,1006.9
2018-07-05T07:55:08.070Z,1006.83
2018-07-05T07:55:48.650Z,1006.86
2018-07-05T07:56:29.356Z,1006.83
2018-07-05T07:57:09.958Z,1006.87
2018-07-05T07:57:50.518Z,1006.8
2018-07-05T07:58:31.089Z,1006.88
2018-07-05T07:59:11.664Z,1006.86
2018-07-05T07:59:52.227Z,1006.79
2018-07-05T08:00:32.854Z,1006.79
2018-07-05T08:01:13.429Z,1006.81
2018-07-05T08:01:54.006Z,1006.74
2018-07-05T08:02:34.576Z,1006.7
2018-07-05T08:03:15.151Z,1006.71
2018-07-05T08:03:55.746Z,1006.69
2018-07-05T08:04:36.317Z,1006.75
2018-07-05T08:05:16.866Z,1006.7
2018-07-05T08:05:57.464Z,1006.69
2018-07-05T08:06:38.142Z,1006.72
2018-07-05T08:07:18.689Z,1006.72
2018-07-05T08:07:59.266Z,1006.71
2018-07-05T08:08:39.839Z,1006.71
2018-07-05T08:09:20.396Z,1006.7
2018-07-05T08:10:00.969Z,1006.71
2018-07-05T08:10:41.514Z,1006.7
2018-07-05T08:11:22.088Z,1006.73
2018-07-05T08:12:02.640Z,1006.73
2018-07-05T08:12:43.216Z,1006.71